logo tempoitalia

Diretta Meteo Sioux City Sioux Gateway, Stati Uniti (USA)lunedì 31 agosto ore 00:52

Mappa
Sereno 22 °C Sereno 24 Ore: T.min 22 T.max 32
Ponente Est Km/h 9.3 Punto di rugiada: 21 °C Umidità: 94% Visibilità: 14 Km
Il sole sorge alle: 06:49 Il sole tramonta alle: 20:01
31 Agosto 2026 00:52 tempo osservato: Sereno Sereno 22 94 1008 vento: Nord E 9.3
30 Agosto 2026 23:52 tempo osservato: Sereno Sereno 22 94 1008 vento: Nord E/SE 9.3
30 Agosto 2026 22:52 tempo osservato: Sereno Sereno 23 94 1008 vento: Nord SE 13
30 Agosto 2026 21:52 tempo osservato: Sereno Sereno 24 88 1008 vento: Nord E/SE 11.1
30 Agosto 2026 20:52 tempo osservato: Sereno Sereno 26 83 1008 vento: Nord S/SE 9.3
30 Agosto 2026 19:52 tempo osservato: Sereno Sereno 27 78 1008 vento: Nord S 9.3
30 Agosto 2026 18:52 tempo osservato: Sereno Sereno 30 66 1008 vento: Nord S/SO 14.8
30 Agosto 2026 17:52 tempo osservato: Sereno Sereno 31 58 1007 vento: Nord S/SO 16.7
30 Agosto 2026 16:52 tempo osservato: Sereno Sereno 32 59 1007 vento: Nord S 20.3
30 Agosto 2026 15:52 tempo osservato: Sereno Sereno 32 59 1007 vento: Nord S 14.8
30 Agosto 2026 14:52 tempo osservato: Sereno Sereno 31 58 1007 vento: Nord S 14.8
30 Agosto 2026 13:52 tempo osservato: Sereno Sereno 30 58 1008 vento: Nord S 18.5
30 Agosto 2026 12:52 tempo osservato: Sereno Sereno 30 58 1008 vento: Nord SO 13
30 Agosto 2026 11:52 tempo osservato: Sereno Sereno 29 58 1008 vento: Nord S/SO 13
30 Agosto 2026 10:52 tempo osservato: Sereno Sereno 29 58 1008 vento: Nord S 16.7
30 Agosto 2026 09:52 tempo osservato: Sereno Sereno 28 65 1008 vento: Nord S 14.8
30 Agosto 2026 08:52 tempo osservato: Sereno Sereno 23 78 1008 vento: Nord S 7.4
30 Agosto 2026 07:52 tempo osservato: Sereno Sereno 23 78 1007 vento: Nord S/SE 22.2
30 Agosto 2026 06:52 tempo osservato: Poco Nuvoloso Poco Nuvoloso 23 83 1007 vento: Nord E 7.4
30 Agosto 2026 05:52 tempo osservato: Sereno Sereno 24 73 1008 vento: Nord S/SO 18.5
30 Agosto 2026 04:52 tempo osservato: Sereno Sereno 22 94 1007 vento: Nord E/SE 14.8
30 Agosto 2026 03:52 tempo osservato: Sereno Sereno 26 65 1007 vento: Nord S 16.7
30 Agosto 2026 02:52 tempo osservato: Sereno Sereno 22 94 1007 vento: Nord E/SE 11.1
30 Agosto 2026 01:52 tempo osservato: Sereno Sereno 22 94 1008 vento: Nord E 11.1